sensor_id;sensor_type;location;lat;lon;timestamp;pressure;altitude;pressure_sealevel;temperature
74485;BMP280;62942;52.462;10.846;2023-02-15T00:00:42;102270;;;
74485;BMP280;62942;52.462;10.846;2023-02-15T00:01:52;102270;;;
74485;BMP280;62942;52.462;10.846;2023-02-15T00:03:02;102270;;;
74485;BMP280;62942;52.462;10.846;2023-02-15T00:04:12;102270;;;
74485;BMP280;62942;52.462;10.846;2023-02-15T00:05:22;102270;;;
74485;BMP280;62942;52.462;10.846;2023-02-15T00:06:32;102270;;;
74485;BMP280;62942;52.462;10.846;2023-02-15T00:07:42;102260;;;
74485;BMP280;62942;52.462;10.846;2023-02-15T00:08:42;102260;;;
74485;BMP280;62942;52.462;10.846;2023-02-15T00:09:42;102260;;;
74485;BMP280;62942;52.462;10.846;2023-02-15T00:10:52;102270;;;
74485;BMP280;62942;52.462;10.846;2023-02-15T00:12:02;102270;;;
74485;BMP280;62942;52.462;10.846;2023-02-15T00:13:12;102280;;;
74485;BMP280;62942;52.462;10.846;2023-02-15T00:14:12;102280;;;
74485;BMP280;62942;52.462;10.846;2023-02-15T00:15:22;102270;;;
74485;BMP280;62942;52.462;10.846;2023-02-15T00:16:32;102270;;;
74485;BMP280;62942;52.462;10.846;2023-02-15T00:17:32;102260;;;
74485;BMP280;62942;52.462;10.846;2023-02-15T00:18:42;102270;;;
74485;BMP280;62942;52.462;10.846;2023-02-15T00:19:42;102270;;;
74485;BMP280;62942;52.462;10.846;2023-02-15T00:20:52;102270;;;
74485;BMP280;62942;52.462;10.846;2023-02-15T00:22:02;102260;;;
74485;BMP280;62942;52.462;10.846;2023-02-15T00:23:12;102260;;;
74485;BMP280;62942;52.462;10.846;2023-02-15T00:24:22;102260;;;
74485;BMP280;62942;52.462;10.846;2023-02-15T00:25:22;102260;;;
74485;BMP280;62942;52.462;10.846;2023-02-15T00:26:32;102260;;;
74485;BMP280;62942;52.462;10.846;2023-02-15T00:27:42;102250;;;
74485;BMP280;62942;52.462;10.846;2023-02-15T00:28:42;102250;;;
74485;BMP280;62942;52.462;10.846;2023-02-15T00:29:52;102250;;;
74485;BMP280;62942;52.462;10.846;2023-02-15T00:30:52;102250;;;
74485;BMP280;62942;52.462;10.846;2023-02-15T00:32:02;102250;;;
74485;BMP280;62942;52.462;10.846;2023-02-15T00:33:12;102250;;;
74485;BMP280;62942;52.462;10.846;2023-02-15T00:34:22;102240;;;
74485;BMP280;62942;52.462;10.846;2023-02-15T00:35:32;102240;;;
74485;BMP280;62942;52.462;10.846;2023-02-15T00:36:42;102240;;;
74485;BMP280;62942;52.462;10.846;2023-02-15T00:37:52;102240;;;
74485;BMP280;62942;52.462;10.846;2023-02-15T00:39:02;102240;;;
74485;BMP280;62942;52.462;10.846;2023-02-15T00:40:02;102240;;;
74485;BMP280;62942;52.462;10.846;2023-02-15T00:41:02;102230;;;
74485;BMP280;62942;52.462;10.846;2023-02-15T00:42:12;102230;;;
74485;BMP280;62942;52.462;10.846;2023-02-15T00:43:22;102240;;;
74485;BMP280;62942;52.462;10.846;2023-02-15T00:44:32;102240;;;
74485;BMP280;62942;52.462;10.846;2023-02-15T00:45:42;102240;;;
74485;BMP280;62942;52.462;10.846;2023-02-15T00:46:52;102240;;;
74485;BMP280;62942;52.462;10.846;2023-02-15T00:47:52;102230;;;
74485;BMP280;62942;52.462;10.846;2023-02-15T00:49:02;102230;;;
74485;BMP280;62942;52.462;10.846;2023-02-15T00:50:12;102230;;;
74485;BMP280;62942;52.462;10.846;2023-02-15T00:51:22;102240;;;
74485;BMP280;62942;52.462;10.846;2023-02-15T00:52:32;102230;;;
74485;BMP280;62942;52.462;10.846;2023-02-15T00:53:42;102230;;;
74485;BMP280;62942;52.462;10.846;2023-02-15T00:54:42;102230;;;
74485;BMP280;62942;52.462;10.846;2023-02-15T00:55:42;102230;;;
74485;BMP280;62942;52.462;10.846;2023-02-15T00:56:42;102240;;;
74485;BMP280;62942;52.462;10.846;2023-02-15T00:57:52;102230;;;
74485;BMP280;62942;52.462;10.846;2023-02-15T00:59:02;102230;;;
74485;BMP280;62942;52.462;10.846;2023-02-15T01:00:12;102230;;;
74485;BMP280;62942;52.462;10.846;2023-02-15T01:01:22;102230;;;
74485;BMP280;62942;52.462;10.846;2023-02-15T01:02:22;102230;;;
74485;BMP280;62942;52.462;10.846;2023-02-15T01:03:22;102230;;;
74485;BMP280;62942;52.462;10.846;2023-02-15T01:04:32;102230;;;
74485;BMP280;62942;52.462;10.846;2023-02-15T01:05:42;102220;;;
74485;BMP280;62942;52.462;10.846;2023-02-15T01:06:42;102220;;;
74485;BMP280;62942;52.462;10.846;2023-02-15T01:07:52;102220;;;
74485;BMP280;62942;52.462;10.846;2023-02-15T01:09:02;102210;;;
74485;BMP280;62942;52.462;10.846;2023-02-15T01:10:11;102220;;;
74485;BMP280;62942;52.462;10.846;2023-02-15T01:11:12;102220;;;
74485;BMP280;62942;52.462;10.846;2023-02-15T01:12:22;102220;;;
74485;BMP280;62942;52.462;10.846;2023-02-15T01:13:32;102210;;;
74485;BMP280;62942;52.462;10.846;2023-02-15T01:14:42;102210;;;
74485;BMP280;62942;52.462;10.846;2023-02-15T01:15:52;102210;;;
74485;BMP280;62942;52.462;10.846;2023-02-15T01:17:02;102210;;;
74485;BMP280;62942;52.462;10.846;2023-02-15T01:18:02;102210;;;
74485;BMP280;62942;52.462;10.846;2023-02-15T01:19:12;102210;;;
74485;BMP280;62942;52.462;10.846;2023-02-15T01:20:12;102200;;;
74485;BMP280;62942;52.462;10.846;2023-02-15T01:21:22;102210;;;
74485;BMP280;62942;52.462;10.846;2023-02-15T01:22:22;102200;;;
74485;BMP280;62942;52.462;10.846;2023-02-15T01:23:32;102200;;;
74485;BMP280;62942;52.462;10.846;2023-02-15T01:24:32;102200;;;
74485;BMP280;62942;52.462;10.846;2023-02-15T01:25:42;102200;;;
74485;BMP280;62942;52.462;10.846;2023-02-15T01:26:42;102190;;;
74485;BMP280;62942;52.462;10.846;2023-02-15T01:27:52;102200;;;
74485;BMP280;62942;52.462;10.846;2023-02-15T01:29:02;102200;;;
74485;BMP280;62942;52.462;10.846;2023-02-15T01:30:12;102190;;;
74485;BMP280;62942;52.462;10.846;2023-02-15T01:31:21;102190;;;
74485;BMP280;62942;52.462;10.846;2023-02-15T01:32:22;102190;;;
74485;BMP280;62942;52.462;10.846;2023-02-15T01:33:32;102180;;;
74485;BMP280;62942;52.462;10.846;2023-02-15T01:34:41;102190;;;
74485;BMP280;62942;52.462;10.846;2023-02-15T01:35:55;102190;;;
74485;BMP280;62942;52.462;10.846;2023-02-15T01:36:51;102190;;;
74485;BMP280;62942;52.462;10.846;2023-02-15T01:37:52;102180;;;
74485;BMP280;62942;52.462;10.846;2023-02-15T01:39:02;102180;;;
74485;BMP280;62942;52.462;10.846;2023-02-15T01:40:12;102180;;;
74485;BMP280;62942;52.462;10.846;2023-02-15T01:41:12;102180;;;
74485;BMP280;62942;52.462;10.846;2023-02-15T01:42:22;102170;;;
74485;BMP280;62942;52.462;10.846;2023-02-15T01:43:21;102170;;;
74485;BMP280;62942;52.462;10.846;2023-02-15T01:44:55;102170;;;
74485;BMP280;62942;52.462;10.846;2023-02-15T01:45:32;102170;;;
74485;BMP280;62942;52.462;10.846;2023-02-15T01:46:33;102170;;;
74485;BMP280;62942;52.462;10.846;2023-02-15T01:47:42;102170;;;
74485;BMP280;62942;52.462;10.846;2023-02-15T01:48:43;102160;;;
74485;BMP280;62942;52.462;10.846;2023-02-15T01:49:53;102170;;;
74485;BMP280;62942;52.462;10.846;2023-02-15T01:51:01;102170;;;
74485;BMP280;62942;52.462;10.846;2023-02-15T01:52:01;102170;;;
74485;BMP280;62942;52.462;10.846;2023-02-15T01:53:12;102170;;;
74485;BMP280;62942;52.462;10.846;2023-02-15T01:54:14;102160;;;
74485;BMP280;62942;52.462;10.846;2023-02-15T01:55:22;102170;;;
74485;BMP280;62942;52.462;10.846;2023-02-15T01:56:32;102160;;;
74485;BMP280;62942;52.462;10.846;2023-02-15T01:57:42;102150;;;
74485;BMP280;62942;52.462;10.846;2023-02-15T01:58:41;102150;;;
74485;BMP280;62942;52.462;10.846;2023-02-15T01:59:52;102150;;;
74485;BMP280;62942;52.462;10.846;2023-02-15T02:01:02;102150;;;
74485;BMP280;62942;52.462;10.846;2023-02-15T02:02:12;102150;;;
74485;BMP280;62942;52.462;10.846;2023-02-15T02:03:11;102150;;;
74485;BMP280;62942;52.462;10.846;2023-02-15T02:04:23;102150;;;
74485;BMP280;62942;52.462;10.846;2023-02-15T02:05:31;102150;;;
74485;BMP280;62942;52.462;10.846;2023-02-15T02:06:32;102150;;;
74485;BMP280;62942;52.462;10.846;2023-02-15T02:07:42;102150;;;
74485;BMP280;62942;52.462;10.846;2023-02-15T02:08:52;102150;;;
74485;BMP280;62942;52.462;10.846;2023-02-15T02:10:02;102150;;;
74485;BMP280;62942;52.462;10.846;2023-02-15T02:11:12;102150;;;
74485;BMP280;62942;52.462;10.846;2023-02-15T02:12:21;102140;;;
74485;BMP280;62942;52.462;10.846;2023-02-15T02:13:31;102140;;;
74485;BMP280;62942;52.462;10.846;2023-02-15T02:14:31;102140;;;
74485;BMP280;62942;52.462;10.846;2023-02-15T02:15:33;102140;;;
74485;BMP280;62942;52.462;10.846;2023-02-15T02:16:43;102140;;;
74485;BMP280;62942;52.462;10.846;2023-02-15T02:17:54;102140;;;
74485;BMP280;62942;52.462;10.846;2023-02-15T02:18:57;102140;;;
74485;BMP280;62942;52.462;10.846;2023-02-15T02:20:22;102150;;;
74485;BMP280;62942;52.462;10.846;2023-02-15T02:21:30;102150;;;
74485;BMP280;62942;52.462;10.846;2023-02-15T02:22:27;102150;;;
74485;BMP280;62942;52.462;10.846;2023-02-15T02:23:35;102150;;;
74485;BMP280;62942;52.462;10.846;2023-02-15T02:24:40;102150;;;
74485;BMP280;62942;52.462;10.846;2023-02-15T02:25:51;102150;;;
74485;BMP280;62942;52.462;10.846;2023-02-15T02:26:48;102150;;;
74485;BMP280;62942;52.462;10.846;2023-02-15T02:27:52;102150;;;
74485;BMP280;62942;52.462;10.846;2023-02-15T02:29:03;102160;;;
74485;BMP280;62942;52.462;10.846;2023-02-15T02:31:02;102150;;;
74485;BMP280;62942;52.462;10.846;2023-02-15T02:31:07;102160;;;
74485;BMP280;62942;52.462;10.846;2023-02-15T02:32:10;102150;;;
74485;BMP280;62942;52.462;10.846;2023-02-15T02:34:12;102150;;;
74485;BMP280;62942;52.462;10.846;2023-02-15T02:35:22;102150;;;
74485;BMP280;62942;52.462;10.846;2023-02-15T02:36:24;102150;;;
74485;BMP280;62942;52.462;10.846;2023-02-15T02:37:34;102150;;;
74485;BMP280;62942;52.462;10.846;2023-02-15T02:38:32;102150;;;
74485;BMP280;62942;52.462;10.846;2023-02-15T02:39:43;102140;;;
74485;BMP280;62942;52.462;10.846;2023-02-15T02:40:52;102150;;;
74485;BMP280;62942;52.462;10.846;2023-02-15T02:41:55;102140;;;
74485;BMP280;62942;52.462;10.846;2023-02-15T02:43:02;102140;;;
74485;BMP280;62942;52.462;10.846;2023-02-15T02:44:04;102140;;;
74485;BMP280;62942;52.462;10.846;2023-02-15T02:45:13;102140;;;
74485;BMP280;62942;52.462;10.846;2023-02-15T02:46:13;102140;;;
74485;BMP280;62942;52.462;10.846;2023-02-15T02:47:22;102130;;;
74485;BMP280;62942;52.462;10.846;2023-02-15T02:48:22;102130;;;
74485;BMP280;62942;52.462;10.846;2023-02-15T02:49:32;102130;;;
74485;BMP280;62942;52.462;10.846;2023-02-15T02:50:41;102130;;;
74485;BMP280;62942;52.462;10.846;2023-02-15T02:51:41;102130;;;
74485;BMP280;62942;52.462;10.846;2023-02-15T02:52:52;102120;;;
74485;BMP280;62942;52.462;10.846;2023-02-15T02:54:03;102130;;;
74485;BMP280;62942;52.462;10.846;2023-02-15T02:55:01;102120;;;
74485;BMP280;62942;52.462;10.846;2023-02-15T02:56:13;102120;;;
74485;BMP280;62942;52.462;10.846;2023-02-15T02:57:11;102120;;;
74485;BMP280;62942;52.462;10.846;2023-02-15T02:58:22;102120;;;
74485;BMP280;62942;52.462;10.846;2023-02-15T02:59:32;102110;;;
74485;BMP280;62942;52.462;10.846;2023-02-15T03:00:33;102110;;;
74485;BMP280;62942;52.462;10.846;2023-02-15T03:01:42;102110;;;
74485;BMP280;62942;52.462;10.846;2023-02-15T03:02:52;102110;;;
74485;BMP280;62942;52.462;10.846;2023-02-15T03:03:53;102110;;;
74485;BMP280;62942;52.462;10.846;2023-02-15T03:05:02;102110;;;
74485;BMP280;62942;52.462;10.846;2023-02-15T03:06:02;102110;;;
74485;BMP280;62942;52.462;10.846;2023-02-15T03:07:12;102110;;;
74485;BMP280;62942;52.462;10.846;2023-02-15T03:08:11;102110;;;
74485;BMP280;62942;52.462;10.846;2023-02-15T03:09:22;102110;;;
74485;BMP280;62942;52.462;10.846;2023-02-15T03:10:22;102110;;;
74485;BMP280;62942;52.462;10.846;2023-02-15T03:11:31;102110;;;
74485;BMP280;62942;52.462;10.846;2023-02-15T03:12:32;102110;;;
74485;BMP280;62942;52.462;10.846;2023-02-15T03:13:41;102110;;;
74485;BMP280;62942;52.462;10.846;2023-02-15T03:14:41;102110;;;
74485;BMP280;62942;52.462;10.846;2023-02-15T03:15:51;102110;;;
74485;BMP280;62942;52.462;10.846;2023-02-15T03:16:51;102100;;;
74485;BMP280;62942;52.462;10.846;2023-02-15T03:17:53;102100;;;
74485;BMP280;62942;52.462;10.846;2023-02-15T03:19:02;102100;;;
74485;BMP280;62942;52.462;10.846;2023-02-15T03:20:14;102100;;;
74485;BMP280;62942;52.462;10.846;2023-02-15T03:21:11;102100;;;
74485;BMP280;62942;52.462;10.846;2023-02-15T03:22:22;102100;;;
74485;BMP280;62942;52.462;10.846;2023-02-15T03:23:31;102100;;;
74485;BMP280;62942;52.462;10.846;2023-02-15T03:24:32;102090;;;
74485;BMP280;62942;52.462;10.846;2023-02-15T03:25:32;102090;;;
74485;BMP280;62942;52.462;10.846;2023-02-15T03:26:42;102090;;;
74485;BMP280;62942;52.462;10.846;2023-02-15T03:27:53;102090;;;
74485;BMP280;62942;52.462;10.846;2023-02-15T03:29:01;102090;;;
74485;BMP280;62942;52.462;10.846;2023-02-15T03:30:02;102080;;;
74485;BMP280;62942;52.462;10.846;2023-02-15T03:31:12;102090;;;
74485;BMP280;62942;52.462;10.846;2023-02-15T03:32:11;102080;;;
74485;BMP280;62942;52.462;10.846;2023-02-15T03:33:11;102080;;;
74485;BMP280;62942;52.462;10.846;2023-02-15T03:34:21;102080;;;
74485;BMP280;62942;52.462;10.846;2023-02-15T03:35:22;102090;;;
74485;BMP280;62942;52.462;10.846;2023-02-15T03:36:33;102090;;;
74485;BMP280;62942;52.462;10.846;2023-02-15T03:37:42;102080;;;
74485;BMP280;62942;52.462;10.846;2023-02-15T03:38:42;102080;;;
74485;BMP280;62942;52.462;10.846;2023-02-15T03:39:52;102080;;;
74485;BMP280;62942;52.462;10.846;2023-02-15T03:40:51;102080;;;
74485;BMP280;62942;52.462;10.846;2023-02-15T03:41:54;102080;;;
74485;BMP280;62942;52.462;10.846;2023-02-15T03:43:06;102070;;;
74485;BMP280;62942;52.462;10.846;2023-02-15T03:44:03;102080;;;
74485;BMP280;62942;52.462;10.846;2023-02-15T03:45:02;102080;;;
74485;BMP280;62942;52.462;10.846;2023-02-15T03:46:04;102070;;;
74485;BMP280;62942;52.462;10.846;2023-02-15T03:47:12;102070;;;
74485;BMP280;62942;52.462;10.846;2023-02-15T03:48:22;102070;;;
74485;BMP280;62942;52.462;10.846;2023-02-15T03:49:34;102060;;;
74485;BMP280;62942;52.462;10.846;2023-02-15T03:50:41;102070;;;
74485;BMP280;62942;52.462;10.846;2023-02-15T03:51:42;102070;;;
74485;BMP280;62942;52.462;10.846;2023-02-15T03:52:41;102060;;;
74485;BMP280;62942;52.462;10.846;2023-02-15T03:53:51;102060;;;
74485;BMP280;62942;52.462;10.846;2023-02-15T03:55:01;102060;;;
74485;BMP280;62942;52.462;10.846;2023-02-15T03:56:01;102070;;;
74485;BMP280;62942;52.462;10.846;2023-02-15T03:57:13;102060;;;
74485;BMP280;62942;52.462;10.846;2023-02-15T03:58:11;102060;;;
74485;BMP280;62942;52.462;10.846;2023-02-15T03:59:11;102060;;;
74485;BMP280;62942;52.462;10.846;2023-02-15T04:00:22;102070;;;
74485;BMP280;62942;52.462;10.846;2023-02-15T04:01:23;102060;;;
74485;BMP280;62942;52.462;10.846;2023-02-15T04:02:33;102060;;;
74485;BMP280;62942;52.462;10.846;2023-02-15T04:03:32;102060;;;
74485;BMP280;62942;52.462;10.846;2023-02-15T04:04:45;102070;;;
74485;BMP280;62942;52.462;10.846;2023-02-15T04:05:42;102070;;;
74485;BMP280;62942;52.462;10.846;2023-02-15T04:06:41;102070;;;
74485;BMP280;62942;52.462;10.846;2023-02-15T04:07:51;102060;;;
74485;BMP280;62942;52.462;10.846;2023-02-15T04:09:01;102070;;;
74485;BMP280;62942;52.462;10.846;2023-02-15T04:10:01;102080;;;
74485;BMP280;62942;52.462;10.846;2023-02-15T04:11:11;102070;;;
74485;BMP280;62942;52.462;10.846;2023-02-15T04:12:11;102070;;;
74485;BMP280;62942;52.462;10.846;2023-02-15T04:13:22;102070;;;
74485;BMP280;62942;52.462;10.846;2023-02-15T04:14:21;102070;;;
74485;BMP280;62942;52.462;10.846;2023-02-15T04:15:21;102070;;;
74485;BMP280;62942;52.462;10.846;2023-02-15T04:16:31;102070;;;
74485;BMP280;62942;52.462;10.846;2023-02-15T04:17:31;102070;;;
74485;BMP280;62942;52.462;10.846;2023-02-15T04:18:42;102070;;;
74485;BMP280;62942;52.462;10.846;2023-02-15T04:19:41;102060;;;
74485;BMP280;62942;52.462;10.846;2023-02-15T04:20:51;102070;;;
74485;BMP280;62942;52.462;10.846;2023-02-15T04:22:01;102070;;;
74485;BMP280;62942;52.462;10.846;2023-02-15T04:23:11;102070;;;
74485;BMP280;62942;52.462;10.846;2023-02-15T04:24:12;102070;;;
74485;BMP280;62942;52.462;10.846;2023-02-15T04:25:11;102070;;;
74485;BMP280;62942;52.462;10.846;2023-02-15T04:26:11;102070;;;
74485;BMP280;62942;52.462;10.846;2023-02-15T04:27:21;102060;;;
74485;BMP280;62942;52.462;10.846;2023-02-15T04:28:21;102070;;;
74485;BMP280;62942;52.462;10.846;2023-02-15T04:29:31;102060;;;
74485;BMP280;62942;52.462;10.846;2023-02-15T04:30:41;102070;;;
74485;BMP280;62942;52.462;10.846;2023-02-15T04:31:41;102070;;;
74485;BMP280;62942;52.462;10.846;2023-02-15T04:32:41;102070;;;
74485;BMP280;62942;52.462;10.846;2023-02-15T04:33:51;102070;;;
74485;BMP280;62942;52.462;10.846;2023-02-15T04:35:01;102070;;;
74485;BMP280;62942;52.462;10.846;2023-02-15T04:36:01;102070;;;
74485;BMP280;62942;52.462;10.846;2023-02-15T04:37:01;102070;;;
74485;BMP280;62942;52.462;10.846;2023-02-15T04:38:01;102060;;;
74485;BMP280;62942;52.462;10.846;2023-02-15T04:39:12;102070;;;
74485;BMP280;62942;52.462;10.846;2023-02-15T04:40:13;102060;;;
74485;BMP280;62942;52.462;10.846;2023-02-15T04:41:21;102060;;;
74485;BMP280;62942;52.462;10.846;2023-02-15T04:42:21;102060;;;
74485;BMP280;62942;52.462;10.846;2023-02-15T04:43:31;102060;;;
74485;BMP280;62942;52.462;10.846;2023-02-15T04:44:31;102060;;;
74485;BMP280;62942;52.462;10.846;2023-02-15T04:45:31;102050;;;
74485;BMP280;62942;52.462;10.846;2023-02-15T04:46:41;102050;;;
74485;BMP280;62942;52.462;10.846;2023-02-15T04:47:41;102050;;;
74485;BMP280;62942;52.462;10.846;2023-02-15T04:48:41;102050;;;
74485;BMP280;62942;52.462;10.846;2023-02-15T04:49:51;102050;;;
74485;BMP280;62942;52.462;10.846;2023-02-15T04:50:51;102050;;;
74485;BMP280;62942;52.462;10.846;2023-02-15T04:52:01;102050;;;
74485;BMP280;62942;52.462;10.846;2023-02-15T04:53:01;102050;;;
74485;BMP280;62942;52.462;10.846;2023-02-15T04:54:01;102050;;;
74485;BMP280;62942;52.462;10.846;2023-02-15T04:55:11;102050;;;
74485;BMP280;62942;52.462;10.846;2023-02-15T04:56:11;102050;;;
74485;BMP280;62942;52.462;10.846;2023-02-15T04:57:11;102040;;;
74485;BMP280;62942;52.462;10.846;2023-02-15T04:58:21;102040;;;
74485;BMP280;62942;52.462;10.846;2023-02-15T04:59:21;102040;;;
74485;BMP280;62942;52.462;10.846;2023-02-15T05:00:31;102030;;;
74485;BMP280;62942;52.462;10.846;2023-02-15T05:01:31;102020;;;
74485;BMP280;62942;52.462;10.846;2023-02-15T05:02:41;102020;;;
74485;BMP280;62942;52.462;10.846;2023-02-15T05:03:51;102030;;;
74485;BMP280;62942;52.462;10.846;2023-02-15T05:04:51;102020;;;
74485;BMP280;62942;52.462;10.846;2023-02-15T05:06:01;102020;;;
74485;BMP280;62942;52.462;10.846;2023-02-15T05:07:01;102020;;;
74485;BMP280;62942;52.462;10.846;2023-02-15T05:08:01;102020;;;
74485;BMP280;62942;52.462;10.846;2023-02-15T05:09:11;102010;;;
74485;BMP280;62942;52.462;10.846;2023-02-15T05:10:21;102020;;;
74485;BMP280;62942;52.462;10.846;2023-02-15T05:11:21;102020;;;
74485;BMP280;62942;52.462;10.846;2023-02-15T05:12:21;102020;;;
74485;BMP280;62942;52.462;10.846;2023-02-15T05:13:31;102020;;;
74485;BMP280;62942;52.462;10.846;2023-02-15T05:14:31;102010;;;
74485;BMP280;62942;52.462;10.846;2023-02-15T05:15:45;102020;;;
74485;BMP280;62942;52.462;10.846;2023-02-15T05:16:41;102010;;;
74485;BMP280;62942;52.462;10.846;2023-02-15T05:17:41;102020;;;
74485;BMP280;62942;52.462;10.846;2023-02-15T05:18:51;102020;;;
74485;BMP280;62942;52.462;10.846;2023-02-15T05:19:51;102020;;;
74485;BMP280;62942;52.462;10.846;2023-02-15T05:21:01;102020;;;
74485;BMP280;62942;52.462;10.846;2023-02-15T05:22:01;102020;;;
74485;BMP280;62942;52.462;10.846;2023-02-15T05:23:01;102020;;;
74485;BMP280;62942;52.462;10.846;2023-02-15T05:24:11;102020;;;
74485;BMP280;62942;52.462;10.846;2023-02-15T05:25:11;102020;;;
74485;BMP280;62942;52.462;10.846;2023-02-15T05:26:22;102020;;;
74485;BMP280;62942;52.462;10.846;2023-02-15T05:27:21;102020;;;
74485;BMP280;62942;52.462;10.846;2023-02-15T05:28:31;102020;;;
74485;BMP280;62942;52.462;10.846;2023-02-15T05:29:31;102020;;;
74485;BMP280;62942;52.462;10.846;2023-02-15T05:30:41;102020;;;
74485;BMP280;62942;52.462;10.846;2023-02-15T05:31:41;102020;;;
74485;BMP280;62942;52.462;10.846;2023-02-15T05:32:51;102010;;;
74485;BMP280;62942;52.462;10.846;2023-02-15T05:33:51;102010;;;
74485;BMP280;62942;52.462;10.846;2023-02-15T05:35:01;102010;;;
74485;BMP280;62942;52.462;10.846;2023-02-15T05:36:02;102010;;;
74485;BMP280;62942;52.462;10.846;2023-02-15T05:37:11;102010;;;
74485;BMP280;62942;52.462;10.846;2023-02-15T05:38:11;102010;;;
74485;BMP280;62942;52.462;10.846;2023-02-15T05:39:11;102010;;;
74485;BMP280;62942;52.462;10.846;2023-02-15T05:40:11;102010;;;
74485;BMP280;62942;52.462;10.846;2023-02-15T05:41:21;102000;;;
74485;BMP280;62942;52.462;10.846;2023-02-15T05:42:21;102000;;;
74485;BMP280;62942;52.462;10.846;2023-02-15T05:43:21;102010;;;
74485;BMP280;62942;52.462;10.846;2023-02-15T05:44:31;102000;;;
74485;BMP280;62942;52.462;10.846;2023-02-15T05:45:43;102010;;;
74485;BMP280;62942;52.462;10.846;2023-02-15T05:46:51;102010;;;
74485;BMP280;62942;52.462;10.846;2023-02-15T05:47:51;102010;;;
74485;BMP280;62942;52.462;10.846;2023-02-15T05:48:51;102010;;;
74485;BMP280;62942;52.462;10.846;2023-02-15T05:50:01;102010;;;
74485;BMP280;62942;52.462;10.846;2023-02-15T05:51:02;102000;;;
74485;BMP280;62942;52.462;10.846;2023-02-15T05:52:11;102000;;;
74485;BMP280;62942;52.462;10.846;2023-02-15T05:53:11;102000;;;
74485;BMP280;62942;52.462;10.846;2023-02-15T05:54:21;102000;;;
74485;BMP280;62942;52.462;10.846;2023-02-15T05:55:31;102000;;;
74485;BMP280;62942;52.462;10.846;2023-02-15T05:56:31;102010;;;
74485;BMP280;62942;52.462;10.846;2023-02-15T05:57:41;102000;;;
74485;BMP280;62942;52.462;10.846;2023-02-15T05:58:52;102010;;;
74485;BMP280;62942;52.462;10.846;2023-02-15T05:59:51;102010;;;
74485;BMP280;62942;52.462;10.846;2023-02-15T06:00:51;101990;;;
74485;BMP280;62942;52.462;10.846;2023-02-15T06:02:01;102000;;;
74485;BMP280;62942;52.462;10.846;2023-02-15T06:03:11;102000;;;
74485;BMP280;62942;52.462;10.846;2023-02-15T06:04:12;102000;;;
74485;BMP280;62942;52.462;10.846;2023-02-15T06:05:21;102000;;;
74485;BMP280;62942;52.462;10.846;2023-02-15T06:06:21;102000;;;
74485;BMP280;62942;52.462;10.846;2023-02-15T06:07:31;102000;;;
74485;BMP280;62942;52.462;10.846;2023-02-15T06:08:41;102000;;;
74485;BMP280;62942;52.462;10.846;2023-02-15T06:09:41;102020;;;
74485;BMP280;62942;52.462;10.846;2023-02-15T06:10:51;102020;;;
74485;BMP280;62942;52.462;10.846;2023-02-15T06:12:01;102020;;;
74485;BMP280;62942;52.462;10.846;2023-02-15T06:13:01;102020;;;
74485;BMP280;62942;52.462;10.846;2023-02-15T06:14:11;102020;;;
74485;BMP280;62942;52.462;10.846;2023-02-15T06:15:11;102020;;;
74485;BMP280;62942;52.462;10.846;2023-02-15T06:16:21;102020;;;
74485;BMP280;62942;52.462;10.846;2023-02-15T06:17:31;102020;;;
74485;BMP280;62942;52.462;10.846;2023-02-15T06:18:31;102010;;;
74485;BMP280;62942;52.462;10.846;2023-02-15T06:19:41;102020;;;
74485;BMP280;62942;52.462;10.846;2023-02-15T06:20:41;102020;;;
74485;BMP280;62942;52.462;10.846;2023-02-15T06:21:51;102030;;;
74485;BMP280;62942;52.462;10.846;2023-02-15T06:22:51;102020;;;
74485;BMP280;62942;52.462;10.846;2023-02-15T06:24:01;102020;;;
74485;BMP280;62942;52.462;10.846;2023-02-15T06:25:11;102020;;;
74485;BMP280;62942;52.462;10.846;2023-02-15T06:26:21;102020;;;
74485;BMP280;62942;52.462;10.846;2023-02-15T06:27:31;102020;;;
74485;BMP280;62942;52.462;10.846;2023-02-15T06:28:41;102020;;;
74485;BMP280;62942;52.462;10.846;2023-02-15T06:29:41;102020;;;
74485;BMP280;62942;52.462;10.846;2023-02-15T06:30:51;102020;;;
74485;BMP280;62942;52.462;10.846;2023-02-15T06:31:51;102010;;;
74485;BMP280;62942;52.462;10.846;2023-02-15T06:33:01;102020;;;
74485;BMP280;62942;52.462;10.846;2023-02-15T06:34:01;102020;;;
74485;BMP280;62942;52.462;10.846;2023-02-15T06:35:11;102020;;;
74485;BMP280;62942;52.462;10.846;2023-02-15T06:36:21;102010;;;
74485;BMP280;62942;52.462;10.846;2023-02-15T06:37:21;102010;;;
74485;BMP280;62942;52.462;10.846;2023-02-15T06:38:31;102010;;;
74485;BMP280;62942;52.462;10.846;2023-02-15T06:39:41;102010;;;
74485;BMP280;62942;52.462;10.846;2023-02-15T06:40:41;102000;;;
74485;BMP280;62942;52.462;10.846;2023-02-15T06:41:51;102010;;;
74485;BMP280;62942;52.462;10.846;2023-02-15T06:42:51;102010;;;
74485;BMP280;62942;52.462;10.846;2023-02-15T06:44:01;102010;;;
74485;BMP280;62942;52.462;10.846;2023-02-15T06:45:01;102010;;;
74485;BMP280;62942;52.462;10.846;2023-02-15T06:46:11;102010;;;
74485;BMP280;62942;52.462;10.846;2023-02-15T06:47:11;102010;;;
74485;BMP280;62942;52.462;10.846;2023-02-15T06:48:21;102010;;;
74485;BMP280;62942;52.462;10.846;2023-02-15T06:49:31;102020;;;
74485;BMP280;62942;52.462;10.846;2023-02-15T06:50:31;102020;;;
74485;BMP280;62942;52.462;10.846;2023-02-15T06:51:41;102020;;;
74485;BMP280;62942;52.462;10.846;2023-02-15T06:52:54;102020;;;
74485;BMP280;62942;52.462;10.846;2023-02-15T06:53:51;102020;;;
74485;BMP280;62942;52.462;10.846;2023-02-15T06:55:01;102020;;;
74485;BMP280;62942;52.462;10.846;2023-02-15T06:56:01;102020;;;